createdAt,value
2023-01-21T00:01:14.383Z,101585.44
2023-01-21T00:03:42.036Z,101598.00
2023-01-21T00:06:09.558Z,101597.03
2023-01-21T00:08:36.968Z,101584.19
2023-01-21T00:11:08.971Z,101594.44
2023-01-21T00:13:36.558Z,101596.03
2023-01-21T00:16:05.118Z,101582.28
2023-01-21T00:18:33.499Z,101583.63
2023-01-21T00:21:01.594Z,101586.50
2023-01-21T00:23:29.134Z,101586.59
2023-01-21T00:26:01.045Z,101580.59
2023-01-21T00:28:30.118Z,101590.63
2023-01-21T00:30:59.332Z,101600.91
2023-01-21T00:33:27.643Z,101604.16
2023-01-21T00:36:09.587Z,101601.25
2023-01-21T00:38:38.139Z,101604.03
2023-01-21T00:41:07.732Z,101605.75
2023-01-21T00:43:35.607Z,101606.34
2023-01-21T00:46:03.433Z,101621.09
2023-01-21T00:48:31.540Z,101619.38
2023-01-21T00:51:00.855Z,101620.31
2023-01-21T00:53:30.222Z,101628.03
2023-01-21T00:56:05.512Z,101642.91
2023-01-21T00:58:33.269Z,101631.56
2023-01-21T01:01:01.819Z,101634.13
2023-01-21T01:03:29.533Z,101630.69
2023-01-21T01:06:02.774Z,101641.78
2023-01-21T01:08:30.102Z,101634.81
2023-01-21T01:10:57.421Z,101641.81
2023-01-21T01:13:24.757Z,101647.53
2023-01-21T01:15:55.942Z,101643.06
2023-01-21T01:18:24.529Z,101641.25
2023-01-21T01:20:52.389Z,101660.44
2023-01-21T01:23:20.158Z,101654.03
2023-01-21T01:26:02.803Z,101657.41
2023-01-21T01:28:30.856Z,101662.81
2023-01-21T01:30:58.453Z,101650.81
2023-01-21T01:33:26.375Z,101655.91
2023-01-21T01:35:53.915Z,101659.78
2023-01-21T01:38:23.330Z,101671.88
2023-01-21T01:40:52.483Z,101680.78
2023-01-21T01:43:28.171Z,101675.00
2023-01-21T01:45:55.607Z,101668.75
2023-01-21T01:48:27.472Z,101681.91
2023-01-21T01:50:57.909Z,101680.72
2023-01-21T01:53:25.606Z,101692.41
2023-01-21T01:55:53.369Z,101715.72
2023-01-21T01:58:21.439Z,101712.16
2023-01-21T02:00:48.889Z,101718.78
2023-01-21T02:03:35.716Z,101709.78
2023-01-21T02:06:04.347Z,101720.53
2023-01-21T02:08:32.896Z,101725.41
2023-01-21T02:11:01.066Z,101715.28
2023-01-21T02:13:29.855Z,101729.44
2023-01-21T02:16:06.272Z,101725.25
2023-01-21T02:18:54.926Z,101738.47
2023-01-21T02:21:31.285Z,101731.03
2023-01-21T02:24:10.905Z,101744.75
2023-01-21T02:27:10.292Z,101763.13
2023-01-21T02:30:12.952Z,101760.81
2023-01-21T02:33:17.440Z,101764.44
2023-01-21T02:36:20.178Z,101788.66
2023-01-21T02:39:25.642Z,101790.78
2023-01-21T02:42:11.630Z,101799.94
2023-01-21T02:45:00.669Z,101803.94
2023-01-21T02:47:55.357Z,101799.19
2023-01-21T02:50:30.462Z,101836.28
2023-01-21T02:52:59.532Z,101844.72
2023-01-21T02:55:37.320Z,101833.63
2023-01-21T02:58:08.343Z,101832.06
2023-01-21T03:01:12.449Z,101845.28
2023-01-21T03:03:52.932Z,101841.00
2023-01-21T03:06:35.953Z,101847.31
2023-01-21T03:09:10.504Z,101870.53
2023-01-21T03:11:37.824Z,101858.00
2023-01-21T03:14:38.758Z,101866.53
2023-01-21T03:17:13.995Z,101860.88
2023-01-21T03:19:54.105Z,101868.53
2023-01-21T03:22:24.744Z,101868.19
2023-01-21T03:24:53.214Z,101873.50
2023-01-21T03:27:23.612Z,101867.81
2023-01-21T03:29:55.084Z,101892.91
2023-01-21T03:32:23.028Z,101885.47
2023-01-21T03:34:51.945Z,101878.84
2023-01-21T03:37:48.197Z,101890.47
2023-01-21T03:40:23.942Z,101896.59
2023-01-21T03:42:52.710Z,101901.56
2023-01-21T03:45:46.927Z,101895.44
2023-01-21T03:48:20.676Z,101904.53
2023-01-21T03:50:54.793Z,101912.56
2023-01-21T03:53:22.667Z,101917.81
2023-01-21T03:55:51.443Z,101912.56
2023-01-21T03:58:18.865Z,101908.03
2023-01-21T04:00:46.809Z,101905.78
2023-01-21T04:03:14.207Z,101913.66
2023-01-21T04:05:41.624Z,101912.03
2023-01-21T04:08:09.846Z,101918.66
2023-01-21T04:10:37.112Z,101922.28
2023-01-21T04:13:04.419Z,101914.13
2023-01-21T04:15:31.709Z,101932.09
2023-01-21T04:17:59.032Z,101923.25
2023-01-21T04:20:26.479Z,101926.44
2023-01-21T04:22:53.743Z,101932.38
2023-01-21T04:25:21.496Z,101931.78
2023-01-21T04:27:48.809Z,101945.97
2023-01-21T04:30:16.719Z,101948.56
2023-01-21T04:32:44.120Z,101935.88
2023-01-21T04:35:11.402Z,101949.91
2023-01-21T04:37:38.723Z,101962.47
2023-01-21T04:40:06.682Z,101966.88
2023-01-21T04:42:33.997Z,101961.53
2023-01-21T04:45:01.721Z,101951.13
2023-01-21T04:47:29.195Z,101961.25
2023-01-21T04:49:56.452Z,101964.34
2023-01-21T04:52:23.801Z,101957.41
2023-01-21T04:54:51.331Z,101964.59
2023-01-21T04:57:18.906Z,101961.38
2023-01-21T04:59:46.365Z,101966.75
2023-01-21T05:02:14.035Z,101972.88
2023-01-21T05:04:41.405Z,101977.91
2023-01-21T05:07:11.990Z,101979.00
2023-01-21T05:09:39.252Z,101969.19
2023-01-21T05:12:07.101Z,101969.56
2023-01-21T05:14:34.572Z,101969.34
2023-01-21T05:17:01.981Z,101975.06
2023-01-21T05:19:29.321Z,101982.75
2023-01-21T05:21:56.564Z,101981.78
2023-01-21T05:24:23.961Z,101974.00
2023-01-21T05:26:51.522Z,101979.50
2023-01-21T05:29:18.857Z,101981.09
2023-01-21T05:31:46.368Z,101997.53
2023-01-21T05:34:13.701Z,101993.03
2023-01-21T05:36:40.998Z,101994.91
2023-01-21T05:39:08.385Z,101999.75
2023-01-21T05:41:35.818Z,102009.00
2023-01-21T05:44:03.288Z,102005.31
2023-01-21T05:46:30.604Z,102006.16
2023-01-21T05:48:57.959Z,102014.50
2023-01-21T05:51:25.316Z,102023.56
2023-01-21T05:53:52.631Z,102017.81
2023-01-21T05:56:20.046Z,102032.88
2023-01-21T05:58:47.489Z,102033.41
2023-01-21T06:01:14.845Z,102025.63
2023-01-21T06:03:42.201Z,102028.69
2023-01-21T06:06:09.527Z,102034.09
2023-01-21T06:08:36.794Z,102031.31
2023-01-21T06:11:04.390Z,102034.22
2023-01-21T06:13:31.854Z,102035.22
2023-01-21T06:15:59.170Z,102040.47
2023-01-21T06:18:26.639Z,102043.16
2023-01-21T06:20:54.023Z,102040.69
2023-01-21T06:23:21.456Z,102042.59
2023-01-21T06:25:48.776Z,102049.16
2023-01-21T06:28:16.289Z,102053.72
2023-01-21T06:30:43.919Z,102048.38
2023-01-21T06:33:11.489Z,102059.56
2023-01-21T06:35:38.937Z,102063.69
2023-01-21T06:38:06.317Z,102058.16
2023-01-21T06:40:34.339Z,102067.66
2023-01-21T06:43:02.027Z,102058.13
2023-01-21T06:45:29.446Z,102059.91
2023-01-21T06:47:56.802Z,102067.63
2023-01-21T06:50:24.254Z,102068.41
2023-01-21T06:52:51.538Z,102078.09
2023-01-21T06:55:18.904Z,102078.66
2023-01-21T06:57:46.166Z,102090.13
2023-01-21T07:00:14.169Z,102092.38
2023-01-21T07:02:41.521Z,102098.22
2023-01-21T07:05:09.151Z,102103.03
2023-01-21T07:07:36.456Z,102100.22
2023-01-21T07:10:04.015Z,102111.47
2023-01-21T07:12:31.818Z,102105.66
2023-01-21T07:14:59.189Z,102112.19
2023-01-21T07:17:26.497Z,102120.53
2023-01-21T07:19:53.879Z,102123.06
2023-01-21T07:22:21.436Z,102130.53
2023-01-21T07:24:48.680Z,102132.47
2023-01-21T07:27:16.320Z,102135.13
2023-01-21T07:29:44.056Z,102140.28
2023-01-21T07:32:11.269Z,102158.13
2023-01-21T07:34:39.303Z,102151.34
2023-01-21T07:37:06.564Z,102156.25
2023-01-21T07:39:33.911Z,102166.25
2023-01-21T07:42:01.312Z,102163.88
2023-01-21T07:44:28.737Z,102173.09
2023-01-21T07:46:56.133Z,102182.03
2023-01-21T07:49:23.527Z,102174.19
2023-01-21T07:51:50.927Z,102175.31
2023-01-21T07:54:18.238Z,102173.69
2023-01-21T07:56:45.633Z,102180.13
2023-01-21T07:59:13.913Z,102195.41
2023-01-21T08:01:41.816Z,102194.56
2023-01-21T08:04:09.878Z,102202.28
2023-01-21T08:06:41.559Z,102200.06
2023-01-21T08:09:10.254Z,102197.91
2023-01-21T08:11:37.840Z,102200.06
2023-01-21T08:14:05.756Z,102209.38
2023-01-21T08:16:33.062Z,102210.22
2023-01-21T08:19:00.642Z,102221.91
2023-01-21T08:21:28.033Z,102212.88
2023-01-21T08:23:55.504Z,102221.81
2023-01-21T08:26:25.559Z,102221.03
2023-01-21T08:28:56.454Z,102224.25
2023-01-21T08:31:23.925Z,102227.03
2023-01-21T08:33:51.283Z,102222.09
2023-01-21T08:36:18.570Z,102231.38
2023-01-21T08:38:48.538Z,102233.97
2023-01-21T08:41:16.604Z,102231.03
2023-01-21T08:43:44.082Z,102234.97
2023-01-21T08:46:11.527Z,102246.75
2023-01-21T08:48:38.932Z,102247.47
2023-01-21T08:51:06.675Z,102244.75
2023-01-21T08:53:34.047Z,102246.72
2023-01-21T08:56:02.659Z,102259.13
2023-01-21T08:58:31.024Z,102256.44
2023-01-21T09:00:58.984Z,102253.13
2023-01-21T09:03:26.360Z,102263.31
2023-01-21T09:05:54.312Z,102279.19
2023-01-21T09:08:21.738Z,102284.75
2023-01-21T09:11:01.049Z,102266.63
2023-01-21T09:13:30.494Z,102270.03
2023-01-21T09:16:00.660Z,102263.72
2023-01-21T09:18:28.112Z,102282.31
2023-01-21T09:21:00.634Z,102286.41
2023-01-21T09:23:28.260Z,102286.09
2023-01-21T09:26:03.384Z,102288.91
2023-01-21T09:28:34.231Z,102272.81
2023-01-21T09:31:04.321Z,102288.72
2023-01-21T09:33:33.182Z,102280.47
2023-01-21T09:36:03.213Z,102291.63
2023-01-21T09:38:31.229Z,102290.09
2023-01-21T09:41:31.006Z,102287.19
2023-01-21T09:44:03.039Z,102289.53
2023-01-21T09:46:58.837Z,102306.34
2023-01-21T09:49:34.459Z,102306.00
2023-01-21T09:52:13.867Z,102315.13
2023-01-21T09:54:41.136Z,102320.34
2023-01-21T09:57:27.154Z,102329.97
2023-01-21T10:00:16.389Z,102328.97
2023-01-21T10:03:08.989Z,102356.44
2023-01-21T10:05:46.109Z,102357.06
2023-01-21T10:08:24.585Z,102372.22
2023-01-21T10:10:54.580Z,102364.97
2023-01-21T10:13:45.329Z,102368.13
2023-01-21T10:16:35.731Z,102365.19
2023-01-21T10:19:04.804Z,102369.19
2023-01-21T10:21:47.059Z,102365.59
2023-01-21T10:24:51.538Z,102370.75
2023-01-21T10:27:20.875Z,102368.25
2023-01-21T10:29:50.631Z,102372.53
2023-01-21T10:32:22.365Z,102365.13
2023-01-21T10:34:56.261Z,102366.25
2023-01-21T10:37:48.538Z,102352.44
2023-01-21T10:40:45.177Z,102367.38
2023-01-21T10:43:33.371Z,102362.34
2023-01-21T10:46:28.124Z,102368.75
2023-01-21T10:49:16.622Z,102375.38
2023-01-21T10:52:05.435Z,102364.94
2023-01-21T10:54:53.355Z,102367.84
2023-01-21T10:57:34.765Z,102365.69
2023-01-21T11:00:05.501Z,102377.53
2023-01-21T11:02:34.035Z,102385.88
2023-01-21T11:05:02.873Z,102388.41
2023-01-21T11:07:35.374Z,102373.41
2023-01-21T11:10:04.048Z,102395.38
2023-01-21T11:12:32.992Z,102385.47
2023-01-21T11:15:13.045Z,102368.88
2023-01-21T11:17:41.973Z,102374.56
2023-01-21T11:20:23.864Z,102368.53
2023-01-21T11:22:51.667Z,102361.25
2023-01-21T11:25:28.230Z,102372.66
2023-01-21T11:27:55.695Z,102379.66
2023-01-21T11:30:49.066Z,102366.25
2023-01-21T11:33:27.429Z,102367.50
2023-01-21T11:35:55.427Z,102368.97
2023-01-21T11:38:32.011Z,102366.31
2023-01-21T11:41:11.628Z,102366.75
2023-01-21T11:43:50.865Z,102353.59
2023-01-21T11:46:30.959Z,102358.38
2023-01-21T11:49:07.168Z,102359.47
2023-01-21T11:51:35.195Z,102360.69
2023-01-21T11:54:29.237Z,102367.59
2023-01-21T11:57:01.797Z,102365.09
2023-01-21T11:59:39.000Z,102366.91
2023-01-21T12:02:13.885Z,102362.13
2023-01-21T12:05:15.609Z,102366.38
2023-01-21T12:07:43.189Z,102357.19
2023-01-21T12:10:13.560Z,102364.03
2023-01-21T12:13:20.540Z,102364.34
2023-01-21T12:16:03.707Z,102362.81
2023-01-21T12:18:59.195Z,102354.00
2023-01-21T12:21:26.482Z,102349.94
2023-01-21T12:24:18.368Z,102351.66
2023-01-21T12:26:47.276Z,102359.06
2023-01-21T12:29:19.465Z,102362.28
2023-01-21T12:31:55.292Z,102345.72
2023-01-21T12:34:31.767Z,102343.91
2023-01-21T12:37:09.808Z,102343.50
2023-01-21T12:39:37.739Z,102339.41
2023-01-21T12:42:29.402Z,102337.38
2023-01-21T12:45:11.653Z,102346.31
2023-01-21T12:47:48.543Z,102326.38
2023-01-21T12:50:39.557Z,102325.31
2023-01-21T12:53:16.319Z,102330.88
2023-01-21T12:56:07.520Z,102325.59
2023-01-21T12:59:02.923Z,102322.09
2023-01-21T13:02:05.709Z,102334.06
2023-01-21T13:05:00.913Z,102336.63
2023-01-21T13:07:43.605Z,102344.81
2023-01-21T13:10:33.926Z,102331.94
2023-01-21T13:13:34.430Z,102343.38
2023-01-21T13:16:07.497Z,102340.59
2023-01-21T13:18:43.925Z,102343.66
2023-01-21T13:21:29.847Z,102352.53
2023-01-21T13:24:05.612Z,102355.69
2023-01-21T13:26:42.546Z,102347.84
2023-01-21T13:29:26.661Z,102342.22
2023-01-21T13:32:21.250Z,102334.88
2023-01-21T13:35:19.931Z,102342.25
2023-01-21T13:37:53.217Z,102359.41
2023-01-21T13:40:29.292Z,102345.28
2023-01-21T13:43:18.482Z,102354.34
2023-01-21T13:45:57.917Z,102335.53
2023-01-21T13:48:49.482Z,102345.78
2023-01-21T13:51:29.297Z,102351.84
2023-01-21T13:54:11.477Z,102349.59
2023-01-21T13:56:48.783Z,102360.09
2023-01-21T13:59:25.412Z,102362.91
2023-01-21T14:02:18.784Z,102361.63
2023-01-21T14:04:46.103Z,102364.19
2023-01-21T14:07:18.475Z,102355.81
2023-01-21T14:09:51.493Z,102374.03
2023-01-21T14:12:47.616Z,102366.69
2023-01-21T14:15:31.186Z,102368.97
2023-01-21T14:18:07.697Z,102370.03
2023-01-21T14:20:45.441Z,102365.31
2023-01-21T14:23:32.419Z,102365.03
2023-01-21T14:26:18.370Z,102369.72
2023-01-21T14:29:06.550Z,102358.13
2023-01-21T14:31:38.486Z,102370.53
2023-01-21T14:34:23.274Z,102366.72
2023-01-21T14:37:05.619Z,102373.44
2023-01-21T14:39:53.238Z,102368.69
2023-01-21T14:42:40.316Z,102365.44
2023-01-21T14:45:08.354Z,102371.94
2023-01-21T14:47:35.576Z,102354.56
2023-01-21T14:50:03.128Z,102369.53
2023-01-21T14:52:32.337Z,102374.16
2023-01-21T14:55:00.346Z,102384.91
2023-01-21T14:57:37.175Z,102382.19
2023-01-21T15:00:19.649Z,102386.28
2023-01-21T15:02:48.395Z,102385.38
2023-01-21T15:05:27.768Z,102381.13
2023-01-21T15:08:22.131Z,102382.09
2023-01-21T15:11:02.401Z,102390.03
2023-01-21T15:13:34.027Z,102381.19
2023-01-21T15:16:39.958Z,102397.41
2023-01-21T15:19:11.202Z,102391.72
2023-01-21T15:21:41.365Z,102391.06
2023-01-21T15:24:32.343Z,102386.94
2023-01-21T15:27:21.797Z,102383.44
2023-01-21T15:30:00.616Z,102396.00
2023-01-21T15:32:31.230Z,102388.56
2023-01-21T15:35:27.849Z,102401.91
2023-01-21T15:38:17.483Z,102420.03
2023-01-21T15:40:48.557Z,102399.75
2023-01-21T15:43:34.740Z,102420.72
2023-01-21T15:46:24.046Z,102412.16
2023-01-21T15:49:00.227Z,102407.56
2023-01-21T15:51:42.688Z,102423.59
2023-01-21T15:54:18.703Z,102417.88
2023-01-21T15:56:53.130Z,102415.50
2023-01-21T15:59:30.533Z,102423.84
2023-01-21T16:02:14.486Z,102425.81
2023-01-21T16:05:24.293Z,102422.84
2023-01-21T16:08:29.276Z,102431.34
2023-01-21T16:11:17.707Z,102433.69
2023-01-21T16:14:15.581Z,102435.56
2023-01-21T16:16:48.801Z,102451.56
2023-01-21T16:19:20.542Z,102442.31
2023-01-21T16:21:51.150Z,102449.94
2023-01-21T16:24:24.745Z,102449.41
2023-01-21T16:26:52.122Z,102445.03
2023-01-21T16:29:19.584Z,102453.81
2023-01-21T16:31:47.682Z,102455.78
2023-01-21T16:34:31.516Z,102447.75
2023-01-21T16:36:58.754Z,102448.22
2023-01-21T16:39:26.059Z,102454.13
2023-01-21T16:42:01.878Z,102450.63
2023-01-21T16:44:29.585Z,102453.84
2023-01-21T16:46:56.966Z,102464.19
2023-01-21T16:49:25.687Z,102453.47
2023-01-21T16:51:57.414Z,102463.13
2023-01-21T16:54:32.352Z,102467.94
2023-01-21T16:57:01.960Z,102473.13
2023-01-21T16:59:44.632Z,102477.03
2023-01-21T17:02:19.264Z,102476.56
2023-01-21T17:04:46.917Z,102474.88
2023-01-21T17:07:20.761Z,102485.53
2023-01-21T17:09:54.312Z,102480.19
2023-01-21T17:12:26.185Z,102483.25
2023-01-21T17:15:01.075Z,102484.13
2023-01-21T17:17:31.621Z,102486.75
2023-01-21T17:19:59.358Z,102490.34
2023-01-21T17:22:29.180Z,102500.63
2023-01-21T17:25:08.533Z,102491.91
2023-01-21T17:27:38.533Z,102495.72
2023-01-21T17:30:32.573Z,102496.25
2023-01-21T17:33:02.101Z,102505.59
2023-01-21T17:35:32.029Z,102508.53
2023-01-21T17:38:00.327Z,102511.09
2023-01-21T17:40:31.508Z,102520.97
2023-01-21T17:43:01.256Z,102521.06
2023-01-21T17:45:33.295Z,102539.78
2023-01-21T17:48:14.101Z,102526.28
2023-01-21T17:50:46.553Z,102526.28
2023-01-21T17:53:21.103Z,102542.00
2023-01-21T17:56:02.976Z,102542.50
2023-01-21T17:58:50.413Z,102530.84
2023-01-21T18:01:19.644Z,102541.09
2023-01-21T18:03:46.983Z,102537.81
2023-01-21T18:06:20.351Z,102537.34
2023-01-21T18:08:47.776Z,102542.66
2023-01-21T18:11:17.381Z,102547.75
2023-01-21T18:13:44.669Z,102543.69
2023-01-21T18:16:12.155Z,102535.78
2023-01-21T18:18:39.608Z,102540.13
2023-01-21T18:21:09.539Z,102541.16
2023-01-21T18:23:36.857Z,102543.25
2023-01-21T18:26:04.790Z,102544.28
2023-01-21T18:28:33.225Z,102551.44
2023-01-21T18:31:01.872Z,102545.78
2023-01-21T18:33:30.969Z,102569.38
2023-01-21T18:35:58.285Z,102567.72
2023-01-21T18:38:30.571Z,102565.63
2023-01-21T18:40:58.987Z,102563.53
2023-01-21T18:43:26.353Z,102567.41
2023-01-21T18:45:54.581Z,102554.53
2023-01-21T18:48:28.310Z,102577.53
2023-01-21T18:50:55.727Z,102581.97
2023-01-21T18:53:23.082Z,102563.44
2023-01-21T18:55:53.911Z,102563.78
2023-01-21T18:58:21.590Z,102570.88
2023-01-21T19:00:50.695Z,102579.94
2023-01-21T19:03:18.370Z,102581.84
2023-01-21T19:05:47.664Z,102587.47
2023-01-21T19:08:18.303Z,102568.69
2023-01-21T19:10:45.782Z,102583.09
2023-01-21T19:13:14.619Z,102574.78
2023-01-21T19:15:42.068Z,102570.53
2023-01-21T19:18:13.898Z,102583.50
2023-01-21T19:20:42.240Z,102579.28
2023-01-21T19:23:18.701Z,102570.75
2023-01-21T19:25:50.903Z,102575.38
2023-01-21T19:28:19.147Z,102584.78
2023-01-21T19:30:49.461Z,102577.47
2023-01-21T19:33:16.922Z,102569.09
2023-01-21T19:35:45.342Z,102578.31
2023-01-21T19:38:17.053Z,102582.69
2023-01-21T19:40:46.732Z,102577.47
2023-01-21T19:43:15.846Z,102575.59
2023-01-21T19:45:43.867Z,102572.66
2023-01-21T19:48:12.968Z,102581.00
2023-01-21T19:50:40.666Z,102588.78
2023-01-21T19:53:10.215Z,102570.16
2023-01-21T19:55:39.215Z,102577.47
2023-01-21T19:58:19.549Z,102577.50
2023-01-21T20:00:49.256Z,102574.56
2023-01-21T20:03:18.154Z,102572.88
2023-01-21T20:05:46.055Z,102571.22
2023-01-21T20:08:15.682Z,102586.06
2023-01-21T20:10:43.891Z,102588.78
2023-01-21T20:13:13.015Z,102600.06
2023-01-21T20:15:41.987Z,102597.13
2023-01-21T20:18:17.900Z,102600.25
2023-01-21T20:20:45.357Z,102606.31
2023-01-21T20:23:15.541Z,102603.81
2023-01-21T20:25:44.211Z,102606.97
2023-01-21T20:28:23.290Z,102622.19
2023-01-21T20:30:52.446Z,102605.69
2023-01-21T20:33:22.096Z,102609.00
2023-01-21T20:35:58.377Z,102602.72
2023-01-21T20:38:30.724Z,102597.09
2023-01-21T20:40:58.777Z,102609.03
2023-01-21T20:43:27.391Z,102610.50
2023-01-21T20:45:55.807Z,102611.13
2023-01-21T20:48:26.265Z,102622.00
2023-01-21T20:50:54.339Z,102606.09
2023-01-21T20:53:21.776Z,102625.75
2023-01-21T20:55:50.631Z,102630.56
2023-01-21T20:58:19.177Z,102628.44
2023-01-21T21:00:47.046Z,102641.16
2023-01-21T21:03:17.985Z,102629.03
2023-01-21T21:05:46.551Z,102623.41
2023-01-21T21:08:16.177Z,102629.66
2023-01-21T21:10:43.821Z,102627.38
2023-01-21T21:13:12.195Z,102628.66
2023-01-21T21:15:40.151Z,102627.63
2023-01-21T21:18:07.500Z,102613.22
2023-01-21T21:20:38.672Z,102617.19
2023-01-21T21:23:07.484Z,102615.50
2023-01-21T21:25:40.115Z,102616.34
2023-01-21T21:28:07.464Z,102628.91
2023-01-21T21:30:34.829Z,102634.88
2023-01-21T21:33:02.314Z,102634.69
2023-01-21T21:35:33.468Z,102637.84
2023-01-21T21:38:09.830Z,102636.16
2023-01-21T21:40:37.223Z,102624.50
2023-01-21T21:43:23.305Z,102633.88
2023-01-21T21:46:16.987Z,102630.13
2023-01-21T21:48:46.166Z,102638.91
2023-01-21T21:51:17.618Z,102650.38
2023-01-21T21:53:46.072Z,102671.59
2023-01-21T21:56:15.810Z,102681.69
2023-01-21T21:58:43.385Z,102677.25
2023-01-21T22:01:13.693Z,102672.03
2023-01-21T22:03:41.284Z,102673.50
2023-01-21T22:06:09.823Z,102667.88
2023-01-21T22:08:38.781Z,102659.91
2023-01-21T22:11:08.914Z,102660.53
2023-01-21T22:13:40.344Z,102661.66
2023-01-21T22:16:09.838Z,102655.00
2023-01-21T22:18:37.240Z,102660.22
2023-01-21T22:21:14.321Z,102664.31
2023-01-21T22:23:42.084Z,102659.31
2023-01-21T22:26:14.652Z,102668.25
2023-01-21T22:28:43.126Z,102668.53
2023-01-21T22:31:16.046Z,102666.81
2023-01-21T22:33:43.716Z,102662.03
2023-01-21T22:36:13.618Z,102674.38
2023-01-21T22:38:41.334Z,102654.94
2023-01-21T22:41:09.843Z,102666.00
2023-01-21T22:43:39.228Z,102660.81
2023-01-21T22:46:06.787Z,102662.94
2023-01-21T22:48:34.137Z,102665.69
2023-01-21T22:51:01.748Z,102666.50
2023-01-21T22:53:29.673Z,102668.16
2023-01-21T22:55:58.888Z,102681.25
2023-01-21T22:58:27.750Z,102694.78
2023-01-21T23:00:55.484Z,102692.09
2023-01-21T23:03:23.452Z,102685.78
2023-01-21T23:05:51.435Z,102698.94
2023-01-21T23:08:19.614Z,102705.97
2023-01-21T23:10:47.517Z,102704.59
2023-01-21T23:13:16.066Z,102694.56
2023-01-21T23:15:44.573Z,102700.88
2023-01-21T23:18:13.728Z,102697.97
2023-01-21T23:20:43.274Z,102691.09
2023-01-21T23:23:11.706Z,102693.97
2023-01-21T23:25:46.254Z,102687.59
2023-01-21T23:28:14.906Z,102686.75
2023-01-21T23:30:42.739Z,102682.34
2023-01-21T23:33:11.495Z,102693.38
2023-01-21T23:35:38.820Z,102716.06
2023-01-21T23:38:06.078Z,102700.34
2023-01-21T23:40:34.407Z,102713.34
2023-01-21T23:43:01.640Z,102707.50
2023-01-21T23:45:28.917Z,102710.69
2023-01-21T23:47:56.167Z,102707.81
2023-01-21T23:50:23.552Z,102698.72
2023-01-21T23:52:50.819Z,102705.88
2023-01-21T23:55:18.282Z,102704.84
2023-01-21T23:57:45.486Z,102694.75
